createdAt,value
2017-03-14T00:00:09.639Z,2.85
2017-03-14T00:01:10.020Z,2.85
2017-03-14T00:02:10.000Z,2.89
2017-03-14T00:03:09.984Z,2.82
2017-03-14T00:04:09.589Z,2.81
2017-03-14T00:05:09.964Z,2.85
2017-03-14T00:06:09.943Z,2.79
2017-03-14T00:07:09.941Z,2.82
2017-03-14T00:08:09.930Z,2.71
2017-03-14T00:09:09.906Z,2.84
2017-03-14T00:10:09.893Z,2.82
2017-03-14T00:11:09.880Z,2.75
2017-03-14T00:12:09.864Z,2.69
2017-03-14T00:13:09.856Z,2.64
2017-03-14T00:14:09.841Z,2.74
2017-03-14T00:15:09.821Z,2.72
2017-03-14T00:16:09.817Z,2.72
2017-03-14T00:17:09.801Z,2.67
2017-03-14T00:18:09.791Z,2.71
2017-03-14T00:19:09.773Z,2.67
2017-03-14T00:20:09.757Z,2.63
2017-03-14T00:21:09.743Z,2.61
2017-03-14T00:22:09.728Z,2.6
2017-03-14T00:23:09.716Z,2.61
2017-03-14T00:24:09.702Z,2.49
2017-03-14T00:25:09.689Z,2.59
2017-03-14T00:26:09.672Z,2.61
2017-03-14T00:27:09.661Z,2.45
2017-03-14T00:28:09.646Z,2.6
2017-03-14T00:29:09.631Z,2.59
2017-03-14T00:30:09.618Z,2.61
2017-03-14T00:31:09.606Z,2.53
2017-03-14T00:32:09.594Z,2.52
2017-03-14T00:33:09.582Z,2.57
2017-03-14T00:34:09.178Z,2.46
2017-03-14T00:35:09.551Z,2.54
2017-03-14T00:36:09.533Z,2.45
2017-03-14T00:37:09.526Z,2.53
2017-03-14T00:38:09.514Z,2.42
2017-03-14T00:39:09.497Z,2.43
2017-03-14T00:40:09.482Z,2.39
2017-03-14T00:41:09.468Z,2.41
2017-03-14T00:42:09.454Z,2.39
2017-03-14T00:43:09.439Z,2.28
2017-03-14T00:44:09.040Z,2.34
2017-03-14T00:45:09.414Z,2.39
2017-03-14T00:46:09.399Z,2.28
2017-03-14T00:47:09.384Z,2.36
2017-03-14T00:48:09.366Z,2.38
2017-03-14T00:49:09.358Z,2.31
2017-03-14T00:50:09.344Z,2.35
2017-03-14T00:51:09.331Z,2.24
2017-03-14T00:52:09.317Z,2.28
2017-03-14T00:53:09.300Z,2.3
2017-03-14T00:54:08.903Z,2.35
2017-03-14T00:55:09.277Z,2.24
2017-03-14T00:56:08.876Z,2.38
2017-03-14T00:57:09.245Z,2.38
2017-03-14T00:58:09.233Z,2.35
2017-03-14T00:59:09.220Z,2.24
2017-03-14T01:00:08.819Z,2.23
2017-03-14T01:01:09.193Z,2.2
2017-03-14T01:02:08.790Z,2.1
2017-03-14T01:03:09.166Z,2.17
2017-03-14T01:04:09.147Z,2.24
2017-03-14T01:05:09.135Z,2.12
2017-03-14T01:06:08.734Z,2.18
2017-03-14T01:07:09.106Z,2.24
2017-03-14T01:08:09.096Z,2.23
2017-03-14T01:09:09.079Z,2.21
2017-03-14T01:10:09.070Z,2.21
2017-03-14T01:11:08.670Z,2.21
2017-03-14T01:12:09.037Z,2.07
2017-03-14T01:13:09.018Z,2.12
2017-03-14T01:14:08.620Z,2.16
2017-03-14T01:15:08.991Z,2.16
2017-03-14T01:16:08.980Z,2.1
2017-03-14T01:17:08.578Z,2.14
2017-03-14T01:18:09.202Z,2.17
2017-03-14T01:19:08.935Z,2.1
2017-03-14T01:20:08.534Z,2.14
2017-03-14T01:21:08.909Z,2.17
2017-03-14T01:22:08.896Z,2.16
2017-03-14T01:23:08.886Z,2.17
2017-03-14T01:24:08.871Z,2.12
2017-03-14T01:25:08.857Z,2.12
2017-03-14T01:26:08.842Z,2.17
2017-03-14T01:27:08.827Z,2.09
2017-03-14T01:28:08.811Z,2.16
2017-03-14T01:29:08.794Z,2.12
2017-03-14T01:30:08.807Z,2.14
2017-03-14T01:31:08.771Z,2.14
2017-03-14T01:32:08.758Z,2.12
2017-03-14T01:33:08.743Z,2.2
2017-03-14T01:34:08.339Z,2.09
2017-03-14T01:35:08.712Z,2.14
2017-03-14T01:36:08.701Z,2.2
2017-03-14T01:37:08.705Z,2.23
2017-03-14T01:38:08.289Z,2.38
2017-03-14T01:39:08.668Z,2.35
2017-03-14T01:40:08.258Z,2.52
2017-03-14T01:41:08.633Z,2.49
2017-03-14T01:42:08.617Z,2.57
2017-03-14T01:43:08.215Z,2.6
2017-03-14T01:44:08.590Z,2.71
2017-03-14T01:45:08.569Z,2.81
2017-03-14T01:46:08.558Z,2.84
2017-03-14T01:47:08.546Z,2.85
2017-03-14T01:48:08.537Z,2.85
2017-03-14T01:49:08.518Z,2.95
2017-03-14T01:50:08.505Z,2.93
2017-03-14T01:51:08.492Z,2.97
2017-03-14T01:52:08.090Z,3.1
2017-03-14T01:53:08.463Z,3.03
2017-03-14T01:54:08.450Z,3.05
2017-03-14T01:55:08.048Z,3.14
2017-03-14T01:56:08.421Z,3.14
2017-03-14T01:57:08.019Z,3.13
2017-03-14T01:58:08.007Z,3.13
2017-03-14T01:59:08.381Z,3.13
2017-03-14T02:00:07.595Z,3.14
2017-03-14T02:01:08.352Z,3.15
2017-03-14T02:02:08.349Z,3.13
2017-03-14T02:03:08.327Z,3.15
2017-03-14T02:04:07.926Z,3.11
2017-03-14T02:05:08.329Z,3.1
2017-03-14T02:06:08.284Z,3.13
2017-03-14T02:07:08.278Z,3.1
2017-03-14T02:08:08.292Z,3.13
2017-03-14T02:09:08.245Z,3.05
2017-03-14T02:10:08.234Z,3.17
2017-03-14T02:11:08.221Z,3.06
2017-03-14T02:12:07.816Z,3.1
2017-03-14T02:13:08.190Z,3.14
2017-03-14T02:14:08.180Z,3.1
2017-03-14T02:15:07.776Z,3.08
2017-03-14T02:16:08.158Z,3.26
2017-03-14T02:17:08.138Z,3.17
2017-03-14T02:18:08.124Z,3.23
2017-03-14T02:19:08.108Z,3.21
2017-03-14T02:20:08.095Z,3.33
2017-03-14T02:21:08.085Z,3.21
2017-03-14T02:22:07.683Z,3.31
2017-03-14T02:23:08.055Z,3.29
2017-03-14T02:24:07.656Z,3.31
2017-03-14T02:25:07.646Z,3.32
2017-03-14T02:26:08.014Z,3.35
2017-03-14T02:27:08.003Z,3.42
2017-03-14T02:28:07.991Z,3.43
2017-03-14T02:29:07.979Z,3.45
2017-03-14T02:30:07.958Z,3.57
2017-03-14T02:31:07.949Z,3.54
2017-03-14T02:32:07.552Z,3.52
2017-03-14T02:33:07.919Z,3.62
2017-03-14T02:34:07.904Z,3.65
2017-03-14T02:35:07.894Z,3.69
2017-03-14T02:36:07.886Z,3.6
2017-03-14T02:37:07.868Z,3.72
2017-03-14T02:38:07.851Z,3.78
2017-03-14T02:39:07.849Z,3.75
2017-03-14T02:40:07.827Z,3.8
2017-03-14T02:41:07.814Z,3.87
2017-03-14T02:42:07.414Z,3.9
2017-03-14T02:43:07.789Z,3.88
2017-03-14T02:44:07.388Z,3.87
2017-03-14T02:45:07.765Z,3.78
2017-03-14T02:46:07.365Z,3.83
2017-03-14T02:47:07.730Z,3.76
2017-03-14T02:48:07.719Z,3.72
2017-03-14T02:49:07.725Z,3.75
2017-03-14T02:50:07.699Z,3.68
2017-03-14T02:51:07.692Z,3.73
2017-03-14T02:52:07.665Z,3.7
2017-03-14T02:53:07.656Z,3.7
2017-03-14T02:54:07.257Z,3.72
2017-03-14T02:55:07.631Z,3.62
2017-03-14T02:56:07.613Z,3.66
2017-03-14T02:57:07.605Z,3.69
2017-03-14T02:58:07.590Z,3.72
2017-03-14T02:59:07.578Z,3.66
2017-03-14T03:00:07.565Z,3.66
2017-03-14T03:01:07.549Z,3.66
2017-03-14T03:02:07.540Z,3.69
2017-03-14T03:03:07.529Z,3.68
2017-03-14T03:04:07.513Z,3.62
2017-03-14T03:05:07.502Z,3.65
2017-03-14T03:06:07.484Z,3.66
2017-03-14T03:07:07.477Z,3.65
2017-03-14T03:08:07.461Z,3.7
2017-03-14T03:09:07.447Z,3.66
2017-03-14T03:10:07.435Z,3.66
2017-03-14T03:11:07.420Z,3.7
2017-03-14T03:12:07.021Z,3.69
2017-03-14T03:13:07.395Z,3.68
2017-03-14T03:14:07.380Z,3.7
2017-03-14T03:15:07.369Z,3.73
2017-03-14T03:16:07.353Z,3.73
2017-03-14T03:17:07.339Z,3.76
2017-03-14T03:18:07.329Z,3.78
2017-03-14T03:19:07.317Z,3.78
2017-03-14T03:20:06.916Z,3.86
2017-03-14T03:21:07.289Z,3.8
2017-03-14T03:22:07.274Z,3.83
2017-03-14T03:23:07.264Z,3.88
2017-03-14T03:24:07.251Z,3.88
2017-03-14T03:25:07.233Z,3.91
2017-03-14T03:26:07.224Z,3.88
2017-03-14T03:27:07.218Z,4.02
2017-03-14T03:28:07.198Z,4
2017-03-14T03:29:07.183Z,3.9
2017-03-14T03:30:07.173Z,3.94
2017-03-14T03:31:07.159Z,3.97
2017-03-14T03:32:07.141Z,3.96
2017-03-14T03:33:07.135Z,3.91
2017-03-14T03:34:07.120Z,3.94
2017-03-14T03:35:07.106Z,3.9
2017-03-14T03:36:07.095Z,3.97
2017-03-14T03:37:07.085Z,3.91
2017-03-14T03:38:07.067Z,3.93
2017-03-14T03:39:07.053Z,3.96
2017-03-14T03:40:07.040Z,3.97
2017-03-14T03:41:07.029Z,3.94
2017-03-14T03:42:07.015Z,3.97
2017-03-14T03:43:07.004Z,3.97
2017-03-14T03:44:06.987Z,3.91
2017-03-14T03:45:06.978Z,3.98
2017-03-14T03:46:06.965Z,3.91
2017-03-14T03:47:06.953Z,3.94
2017-03-14T03:48:06.965Z,3.96
2017-03-14T03:49:06.923Z,3.9
2017-03-14T03:50:06.534Z,3.91
2017-03-14T03:51:06.896Z,3.93
2017-03-14T03:52:06.885Z,3.96
2017-03-14T03:53:06.876Z,3.94
2017-03-14T03:54:06.863Z,3.94
2017-03-14T03:55:06.851Z,3.94
2017-03-14T03:56:06.840Z,3.9
2017-03-14T03:57:06.822Z,4
2017-03-14T03:58:06.807Z,3.94
2017-03-14T03:59:06.797Z,4.04
2017-03-14T04:00:06.777Z,4.05
2017-03-14T04:01:06.770Z,4.02
2017-03-14T04:02:06.367Z,4.02
2017-03-14T04:03:06.744Z,4.06
2017-03-14T04:04:06.738Z,4.09
2017-03-14T04:05:06.739Z,4.05
2017-03-14T04:06:06.713Z,4.09
2017-03-14T04:07:06.694Z,4.09
2017-03-14T04:08:06.683Z,4.18
2017-03-14T04:09:06.665Z,4.14
2017-03-14T04:10:06.651Z,4.16
2017-03-14T04:11:06.643Z,4.12
2017-03-14T04:12:06.628Z,4.16
2017-03-14T04:13:06.614Z,4.18
2017-03-14T04:14:06.599Z,4.15
2017-03-14T04:15:06.589Z,4.23
2017-03-14T04:16:06.578Z,4.2
2017-03-14T04:17:06.564Z,4.24
2017-03-14T04:18:06.550Z,4.29
2017-03-14T04:19:06.544Z,4.26
2017-03-14T04:20:06.524Z,4.29
2017-03-14T04:21:06.521Z,4.33
2017-03-14T04:22:06.114Z,4.36
2017-03-14T04:23:06.485Z,4.29
2017-03-14T04:24:06.469Z,4.36
2017-03-14T04:25:06.461Z,4.41
2017-03-14T04:26:06.451Z,4.44
2017-03-14T04:27:06.048Z,4.44
2017-03-14T04:28:06.421Z,4.41
2017-03-14T04:29:06.409Z,4.41
2017-03-14T04:30:06.395Z,4.4
2017-03-14T04:31:06.381Z,4.44
2017-03-14T04:32:06.373Z,4.41
2017-03-14T04:33:06.361Z,4.48
2017-03-14T04:34:06.344Z,4.48
2017-03-14T04:35:05.948Z,4.48
2017-03-14T04:36:06.320Z,4.44
2017-03-14T04:37:06.308Z,4.48
2017-03-14T04:38:06.290Z,4.47
2017-03-14T04:39:06.285Z,4.47
2017-03-14T04:40:05.495Z,4.45
2017-03-14T04:41:06.260Z,4.47
2017-03-14T04:42:06.246Z,4.5
2017-03-14T04:43:06.234Z,4.48
2017-03-14T04:44:05.836Z,4.51
2017-03-14T04:45:06.207Z,4.54
2017-03-14T04:46:06.198Z,4.48
2017-03-14T04:47:05.797Z,4.54
2017-03-14T04:48:05.783Z,4.6
2017-03-14T04:49:05.775Z,4.59
2017-03-14T04:50:06.145Z,4.6
2017-03-14T04:51:05.745Z,4.75
2017-03-14T04:52:06.118Z,4.65
2017-03-14T04:53:06.107Z,4.59
2017-03-14T04:54:06.091Z,4.65
2017-03-14T04:55:06.083Z,4.7
2017-03-14T04:56:06.067Z,4.7
2017-03-14T04:57:05.671Z,4.72
2017-03-14T04:58:06.040Z,4.8
2017-03-14T04:59:05.645Z,4.8
2017-03-14T05:00:05.632Z,4.84
2017-03-14T05:01:06.002Z,4.86
2017-03-14T05:02:05.996Z,4.89
2017-03-14T05:03:05.982Z,4.91
2017-03-14T05:04:05.973Z,5
2017-03-14T05:05:05.572Z,4.97
2017-03-14T05:06:05.945Z,4.94
2017-03-14T05:07:05.933Z,4.99
2017-03-14T05:08:05.919Z,4.96
2017-03-14T05:09:05.906Z,5.06
2017-03-14T05:10:05.894Z,5
2017-03-14T05:11:05.884Z,5.09
2017-03-14T05:12:05.867Z,5.09
2017-03-14T05:13:05.470Z,5.12
2017-03-14T05:14:05.847Z,5.17
2017-03-14T05:15:05.445Z,5.2
2017-03-14T05:16:05.442Z,5.15
2017-03-14T05:17:05.808Z,5.22
2017-03-14T05:18:05.805Z,5.2
2017-03-14T05:19:05.009Z,5.18
2017-03-14T05:20:05.383Z,5.18
2017-03-14T05:21:05.375Z,5.13
2017-03-14T05:22:05.364Z,5.21
2017-03-14T05:23:05.736Z,5.21
2017-03-14T05:24:05.723Z,5.27
2017-03-14T05:25:05.322Z,5.31
2017-03-14T05:26:05.309Z,5.31
2017-03-14T05:27:05.685Z,5.3
2017-03-14T05:28:05.670Z,5.3
2017-03-14T05:29:05.662Z,5.2
2017-03-14T05:30:05.261Z,5.28
2017-03-14T05:31:05.249Z,5.27
2017-03-14T05:32:05.625Z,5.3
2017-03-14T05:33:05.611Z,5.38
2017-03-14T05:34:05.596Z,5.36
2017-03-14T05:35:05.196Z,5.45
2017-03-14T05:36:05.185Z,5.42
2017-03-14T05:37:05.562Z,5.56
2017-03-14T05:38:05.550Z,5.46
2017-03-14T05:39:05.541Z,5.57
2017-03-14T05:40:05.529Z,5.64
2017-03-14T05:41:05.512Z,5.51
2017-03-14T05:42:05.497Z,5.61
2017-03-14T05:43:05.489Z,5.72
2017-03-14T05:44:05.091Z,5.72
2017-03-14T05:45:05.470Z,5.75
2017-03-14T05:46:05.458Z,5.79
2017-03-14T05:47:05.443Z,5.82
2017-03-14T05:48:05.427Z,5.85
2017-03-14T05:49:05.417Z,5.79
2017-03-14T05:50:05.403Z,5.85
2017-03-14T05:51:05.392Z,5.83
2017-03-14T05:52:05.382Z,5.93
2017-03-14T05:53:05.373Z,5.94
2017-03-14T05:54:05.358Z,5.99
2017-03-14T05:55:04.572Z,6
2017-03-14T05:56:05.335Z,6.06
2017-03-14T05:57:05.325Z,6.11
2017-03-14T05:58:04.926Z,6.04
2017-03-14T05:59:05.297Z,6.08
2017-03-14T06:00:04.932Z,6.14
2017-03-14T06:01:04.889Z,6.14
2017-03-14T06:02:05.261Z,6.17
2017-03-14T06:03:05.250Z,6.3
2017-03-14T06:04:05.242Z,6.33
2017-03-14T06:05:04.844Z,6.37
2017-03-14T06:06:04.833Z,6.38
2017-03-14T06:07:05.206Z,6.38
2017-03-14T06:08:05.195Z,6.4
2017-03-14T06:09:05.183Z,6.41
2017-03-14T06:10:05.172Z,6.55
2017-03-14T06:11:05.159Z,6.56
2017-03-14T06:12:05.150Z,6.58
2017-03-14T06:13:05.137Z,6.55
2017-03-14T06:14:05.134Z,6.62
2017-03-14T06:15:04.730Z,6.67
2017-03-14T06:16:04.718Z,6.7
2017-03-14T06:17:05.099Z,6.7
2017-03-14T06:18:05.083Z,6.71
2017-03-14T06:19:05.070Z,6.76
2017-03-14T06:20:05.060Z,6.79
2017-03-14T06:21:05.055Z,6.87
2017-03-14T06:22:05.041Z,6.84
2017-03-14T06:23:05.030Z,6.98
2017-03-14T06:24:05.019Z,7.05
2017-03-14T06:25:05.008Z,7.06
2017-03-14T06:26:04.996Z,7.07
2017-03-14T06:27:04.983Z,7.12
2017-03-14T06:28:04.970Z,7.17
2017-03-14T06:29:04.577Z,7.32
2017-03-14T06:30:04.951Z,7.27
2017-03-14T06:31:04.941Z,7.32
2017-03-14T06:32:04.930Z,7.28
2017-03-14T06:33:04.925Z,7.48
2017-03-14T06:34:04.911Z,7.48
2017-03-14T06:35:04.906Z,7.52
2017-03-14T06:36:04.887Z,7.57
2017-03-14T06:37:04.878Z,7.52
2017-03-14T06:38:04.869Z,7.67
2017-03-14T06:39:04.858Z,7.79
2017-03-14T06:40:04.459Z,7.86
2017-03-14T06:41:04.838Z,7.92
2017-03-14T06:42:04.824Z,8.04
2017-03-14T06:43:04.817Z,8.08
2017-03-14T06:44:04.805Z,8.04
2017-03-14T06:45:04.797Z,8.16
2017-03-14T06:46:04.784Z,8.19
2017-03-14T06:47:04.776Z,8.19
2017-03-14T06:48:04.771Z,8.28
2017-03-14T06:49:04.755Z,8.36
2017-03-14T06:50:04.365Z,8.38
2017-03-14T06:51:04.741Z,8.34
2017-03-14T06:52:04.726Z,8.45
2017-03-14T06:53:04.715Z,8.4
2017-03-14T06:54:04.705Z,8.52
2017-03-14T06:55:04.700Z,8.53
2017-03-14T06:56:04.705Z,8.5
2017-03-14T06:57:04.678Z,8.61
2017-03-14T06:58:04.666Z,8.58
2017-03-14T06:59:04.662Z,8.73
2017-03-14T07:00:04.899Z,8.7
2017-03-14T07:01:04.648Z,8.8
2017-03-14T07:02:04.632Z,8.95
2017-03-14T07:03:04.621Z,8.96
2017-03-14T07:04:04.617Z,9.08
2017-03-14T07:05:04.606Z,9.05
2017-03-14T07:06:04.595Z,9.15
2017-03-14T07:07:04.588Z,9.2
2017-03-14T07:08:04.575Z,9.32
2017-03-14T07:09:04.571Z,9.36
2017-03-14T07:10:04.562Z,9.54
2017-03-14T07:11:04.163Z,9.47
2017-03-14T07:12:04.551Z,9.5
2017-03-14T07:13:04.534Z,9.53
2017-03-14T07:14:04.527Z,9.56
2017-03-14T07:15:04.518Z,9.56
2017-03-14T07:16:04.125Z,9.6
2017-03-14T07:17:04.499Z,9.68
2017-03-14T07:18:04.492Z,9.76
2017-03-14T07:19:04.484Z,9.87
2017-03-14T07:20:04.473Z,9.96
2017-03-14T07:21:04.469Z,9.97
2017-03-14T07:22:04.455Z,10.01
2017-03-14T07:23:04.449Z,10.08
2017-03-14T07:24:04.443Z,10.2
2017-03-14T07:25:04.437Z,10.18
2017-03-14T07:26:04.431Z,10.32
2017-03-14T07:27:04.422Z,10.36
2017-03-14T07:28:04.421Z,10.36
2017-03-14T07:29:04.409Z,10.51
2017-03-14T07:30:04.392Z,10.41
2017-03-14T07:31:04.390Z,10.6
2017-03-14T07:32:04.385Z,10.56
2017-03-14T07:33:04.372Z,10.56
2017-03-14T07:34:03.980Z,10.68
2017-03-14T07:35:04.361Z,10.7
2017-03-14T07:36:04.359Z,10.81
2017-03-14T07:37:04.373Z,10.92
2017-03-14T07:38:04.338Z,10.99
2017-03-14T07:39:03.943Z,10.99
2017-03-14T07:40:03.937Z,11.04
2017-03-14T07:41:04.350Z,11.1
2017-03-14T07:42:03.923Z,11.15
2017-03-14T07:43:04.311Z,11.25
2017-03-14T07:44:04.294Z,11.25
2017-03-14T07:45:04.286Z,11.25
2017-03-14T07:46:04.276Z,11.43
2017-03-14T07:47:04.271Z,11.43
2017-03-14T07:48:04.268Z,11.47
2017-03-14T07:49:03.872Z,11.58
2017-03-14T07:50:04.252Z,11.6
2017-03-14T07:51:04.245Z,11.67
2017-03-14T07:52:04.245Z,11.75
2017-03-14T07:53:04.239Z,11.76
2017-03-14T07:54:03.838Z,11.82
2017-03-14T07:55:04.219Z,11.85
2017-03-14T07:56:04.216Z,11.96
2017-03-14T07:57:03.826Z,11.98
2017-03-14T07:58:04.203Z,11.99
2017-03-14T07:59:04.194Z,11.99
2017-03-14T08:00:04.217Z,12.02
2017-03-14T08:01:03.795Z,12.01
2017-03-14T08:02:03.788Z,12.12
2017-03-14T08:03:04.168Z,12.04
2017-03-14T08:04:04.175Z,12.19
2017-03-14T08:05:04.165Z,12.04
2017-03-14T08:06:04.178Z,12.07
2017-03-14T08:07:04.143Z,12.12
2017-03-14T08:08:04.137Z,12.1
2017-03-14T08:09:04.133Z,12.17
2017-03-14T08:10:04.133Z,12.13
2017-03-14T08:11:04.121Z,12.27
2017-03-14T08:12:04.114Z,12.23
2017-03-14T08:13:04.104Z,12.27
2017-03-14T08:14:04.098Z,12.27
2017-03-14T08:15:04.093Z,12.21
2017-03-14T08:16:04.088Z,12.28
2017-03-14T08:17:04.081Z,12.23
2017-03-14T08:18:04.076Z,12.23
2017-03-14T08:19:04.068Z,12.23
2017-03-14T08:20:04.063Z,12.24
2017-03-14T08:21:04.058Z,12.23
2017-03-14T08:22:04.051Z,12.23
2017-03-14T08:23:04.042Z,12.27
2017-03-14T08:24:04.047Z,12.28
2017-03-14T08:25:04.038Z,12.24
2017-03-14T08:26:04.028Z,12.39
2017-03-14T08:27:04.025Z,12.42
2017-03-14T08:28:04.014Z,12.41
2017-03-14T08:29:04.011Z,12.24
2017-03-14T08:30:04.012Z,12.14
2017-03-14T08:31:04.022Z,12.09
2017-03-14T08:32:03.992Z,11.95
2017-03-14T08:33:03.985Z,11.83
2017-03-14T08:34:03.981Z,11.75
2017-03-14T08:35:03.976Z,11.61
2017-03-14T08:36:03.969Z,11.47
2017-03-14T08:37:03.965Z,11.42
2017-03-14T08:38:03.956Z,11.39
2017-03-14T08:39:03.951Z,11.36
2017-03-14T08:40:03.942Z,11.28
2017-03-14T08:41:03.936Z,11.37
2017-03-14T08:42:03.937Z,11.4
2017-03-14T08:43:03.921Z,11.47
2017-03-14T08:44:03.913Z,11.54
2017-03-14T08:45:03.910Z,11.51
2017-03-14T08:46:03.907Z,11.61
2017-03-14T08:47:03.899Z,11.57
2017-03-14T08:48:03.506Z,11.62
2017-03-14T08:49:03.880Z,11.61
2017-03-14T08:50:03.489Z,11.7
2017-03-14T08:51:03.870Z,11.76
2017-03-14T08:52:03.865Z,11.8
2017-03-14T08:53:03.857Z,11.88
2017-03-14T08:54:03.851Z,11.86
2017-03-14T08:55:03.851Z,11.86
2017-03-14T08:56:03.838Z,11.85
2017-03-14T08:57:03.831Z,11.79
2017-03-14T08:58:03.824Z,11.85
2017-03-14T09:00:03.826Z,11.85
2017-03-14T09:01:03.810Z,11.86
2017-03-14T09:02:03.800Z,11.9
2017-03-14T09:03:03.791Z,11.78
2017-03-14T09:04:03.786Z,11.83
2017-03-14T09:05:03.396Z,11.88
2017-03-14T09:06:03.386Z,11.75
2017-03-14T09:07:03.378Z,11.69
2017-03-14T09:08:03.760Z,11.72
2017-03-14T09:09:03.754Z,11.67
2017-03-14T09:10:03.748Z,11.73
2017-03-14T09:11:03.742Z,11.73
2017-03-14T09:12:03.733Z,11.8
2017-03-14T09:13:03.725Z,11.85
2017-03-14T09:14:03.724Z,11.94
2017-03-14T09:15:03.327Z,12.1
2017-03-14T09:16:03.322Z,12.21
2017-03-14T09:17:03.703Z,12.14
2017-03-14T09:18:03.697Z,12.16
2017-03-14T09:19:03.696Z,12.12
2017-03-14T09:20:03.682Z,12.28
2017-03-14T09:21:03.290Z,12.29
2017-03-14T09:22:03.282Z,12.34
2017-03-14T09:23:03.682Z,12.42
2017-03-14T09:24:03.656Z,12.45
2017-03-14T09:25:03.650Z,12.41
2017-03-14T09:27:03.637Z,12.59
2017-03-14T09:28:03.249Z,12.7
2017-03-14T09:29:03.633Z,12.71
2017-03-14T09:30:03.620Z,12.7
2017-03-14T09:31:02.840Z,12.77
2017-03-14T09:32:03.605Z,12.75
2017-03-14T09:33:03.604Z,12.9
2017-03-14T09:34:03.425Z,12.86
2017-03-14T09:35:03.589Z,12.97
2017-03-14T09:36:03.595Z,13.04
2017-03-14T09:37:03.579Z,13.17
2017-03-14T09:38:03.571Z,13.28
2017-03-14T09:39:03.566Z,13.23
2017-03-14T09:40:03.176Z,13.22
2017-03-14T09:41:03.167Z,13.32
2017-03-14T09:42:03.167Z,13.26
2017-03-14T09:43:03.186Z,13.42
2017-03-14T09:44:03.539Z,13.41
2017-03-14T09:45:03.532Z,13.49
2017-03-14T09:46:03.539Z,13.49
2017-03-14T09:47:03.523Z,13.49
2017-03-14T09:48:03.519Z,13.55
2017-03-14T09:49:03.512Z,13.6
2017-03-14T09:50:03.512Z,13.63
2017-03-14T09:51:03.503Z,13.62
2017-03-14T09:52:03.497Z,13.54
2017-03-14T09:53:03.486Z,13.49
2017-03-14T09:54:03.486Z,13.57
2017-03-14T09:55:03.485Z,13.66
2017-03-14T09:56:03.484Z,13.66
2017-03-14T09:57:03.470Z,13.71
2017-03-14T09:58:03.466Z,13.64
2017-03-14T09:59:03.458Z,13.6
2017-03-14T10:00:03.455Z,13.44
2017-03-14T10:01:03.452Z,13.42
2017-03-14T10:02:03.448Z,13.3
2017-03-14T10:03:03.439Z,13.23
2017-03-14T10:04:03.438Z,13.12
2017-03-14T10:05:03.430Z,13.14
2017-03-14T10:06:02.651Z,13.11
2017-03-14T10:07:03.030Z,13.05
2017-03-14T10:08:03.026Z,13.14
2017-03-14T10:09:03.021Z,13.12
2017-03-14T10:10:03.399Z,13.07
2017-03-14T10:11:03.418Z,13.11
2017-03-14T10:12:03.389Z,13.04
2017-03-14T10:13:03.387Z,13.07
2017-03-14T10:14:02.994Z,13.12
2017-03-14T10:15:02.988Z,13.15
2017-03-14T10:16:03.371Z,13.29
2017-03-14T10:17:03.362Z,13.26
2017-03-14T10:18:03.374Z,13.2
2017-03-14T10:19:03.356Z,13.26
2017-03-14T10:20:03.346Z,13.3
2017-03-14T10:21:03.347Z,13.3
2017-03-14T10:22:03.343Z,13.33
2017-03-14T10:23:03.162Z,13.23
2017-03-14T10:24:03.158Z,13.23
2017-03-14T10:25:03.148Z,13.23
2017-03-14T10:26:02.841Z,13.17
2017-03-14T10:27:03.140Z,13.15
2017-03-14T10:28:03.136Z,13.04
2017-03-14T10:29:03.128Z,13.07
2017-03-14T10:30:03.123Z,13.1
2017-03-14T10:31:03.115Z,13.07
2017-03-14T10:32:03.116Z,13.08
2017-03-14T10:33:03.114Z,13.25
2017-03-14T10:34:03.102Z,13.22
2017-03-14T10:35:03.097Z,13.42
2017-03-14T10:36:03.097Z,13.44
2017-03-14T10:37:03.085Z,13.42
2017-03-14T10:38:02.776Z,13.42
2017-03-14T10:39:03.087Z,13.29
2017-03-14T10:40:03.067Z,13.36
2017-03-14T10:41:03.064Z,13.39
2017-03-14T10:42:03.059Z,13.41
2017-03-14T10:43:03.051Z,13.39
2017-03-14T10:44:03.047Z,13.39
2017-03-14T10:45:02.740Z,13.44
2017-03-14T10:46:02.736Z,13.36
2017-03-14T10:47:03.034Z,13.41
2017-03-14T10:48:03.024Z,13.23
2017-03-14T10:49:03.020Z,13.2
2017-03-14T10:50:03.018Z,13.14
2017-03-14T10:51:02.706Z,13.2
2017-03-14T10:52:03.004Z,13.14
2017-03-14T10:53:03.001Z,13.2
2017-03-14T10:54:02.994Z,13.19
2017-03-14T10:55:02.993Z,13.28
2017-03-14T10:56:02.682Z,13.3
2017-03-14T10:57:02.980Z,13.3
2017-03-14T10:58:02.976Z,13.39
2017-03-14T10:59:02.994Z,13.45
2017-03-14T11:00:02.962Z,13.39
2017-03-14T11:01:02.959Z,13.51
2017-03-14T11:02:02.959Z,13.49
2017-03-14T11:03:02.951Z,13.6
2017-03-14T11:04:02.943Z,13.51
2017-03-14T11:05:02.938Z,13.42
2017-03-14T11:06:02.631Z,13.44
2017-03-14T11:07:02.931Z,13.33
2017-03-14T11:08:02.923Z,13.42
2017-03-14T11:09:03.119Z,13.39
2017-03-14T11:10:02.622Z,13.32
2017-03-14T11:11:02.606Z,13.33
2017-03-14T11:12:02.907Z,13.29
2017-03-14T11:13:02.293Z,13.25
2017-03-14T11:14:02.898Z,13.22
2017-03-14T11:15:02.589Z,13.14
2017-03-14T11:16:02.579Z,13.14
2017-03-14T11:17:02.890Z,13.26
2017-03-14T11:18:02.572Z,13.14
2017-03-14T11:19:02.566Z,13.25
2017-03-14T11:20:02.861Z,13.22
2017-03-14T11:21:02.557Z,13.29
2017-03-14T11:22:02.855Z,13.25
2017-03-14T11:23:02.850Z,13.22
2017-03-14T11:24:02.843Z,13.28
2017-03-14T11:25:02.841Z,13.32
2017-03-14T11:26:02.838Z,13.23
2017-03-14T11:27:02.827Z,13.32
2017-03-14T11:28:02.824Z,13.33
2017-03-14T11:29:02.819Z,13.26
2017-03-14T11:30:02.812Z,13.2
2017-03-14T11:31:02.808Z,13.14
2017-03-14T11:32:02.500Z,13.07
2017-03-14T11:33:02.493Z,13.01
2017-03-14T11:34:02.788Z,13.01
2017-03-14T11:35:02.482Z,13.01
2017-03-14T11:36:02.781Z,13.03
2017-03-14T11:37:02.472Z,12.89
2017-03-14T11:38:02.169Z,12.86
2017-03-14T11:39:02.765Z,12.9
2017-03-14T11:40:02.454Z,12.87
2017-03-14T11:41:02.451Z,12.87
2017-03-14T11:42:02.747Z,12.95
2017-03-14T11:43:02.746Z,13
2017-03-14T11:44:02.739Z,12.97
2017-03-14T11:45:02.731Z,13
2017-03-14T11:46:02.727Z,13.04
2017-03-14T11:47:02.722Z,13.14
2017-03-14T11:48:02.713Z,13.14
2017-03-14T11:49:02.709Z,13.22
2017-03-14T11:50:02.703Z,13.14
2017-03-14T11:51:02.696Z,13.28
2017-03-14T11:52:02.690Z,13.17
2017-03-14T11:53:02.685Z,13.19
2017-03-14T11:54:02.681Z,13.22
2017-03-14T11:55:02.675Z,13.33
2017-03-14T11:56:02.670Z,13.36
2017-03-14T11:57:02.661Z,13.41
2017-03-14T11:58:02.657Z,13.42
2017-03-14T11:59:02.652Z,13.55
2017-03-14T12:00:02.647Z,13.6
2017-03-14T12:01:02.642Z,13.63
2017-03-14T12:02:02.643Z,13.55
2017-03-14T12:03:02.630Z,13.63
2017-03-14T12:04:02.324Z,13.66
2017-03-14T12:05:02.621Z,13.78
2017-03-14T12:06:02.868Z,13.85
2017-03-14T12:07:02.608Z,13.84
2017-03-14T12:08:02.603Z,14.03
2017-03-14T12:09:02.597Z,14.1
2017-03-14T12:10:02.596Z,14.24
2017-03-14T12:11:02.597Z,14.36
2017-03-14T12:12:02.583Z,14.51
2017-03-14T12:13:02.577Z,14.55
2017-03-14T12:14:02.577Z,14.58
2017-03-14T12:15:02.567Z,14.68
2017-03-14T12:16:02.568Z,14.84
2017-03-14T12:17:02.561Z,14.84
2017-03-14T12:18:02.556Z,14.91
2017-03-14T12:19:02.548Z,15.02
2017-03-14T12:20:02.545Z,15.13
2017-03-14T12:21:02.540Z,15.17
2017-03-14T12:22:02.535Z,15.25
2017-03-14T12:23:02.537Z,15.34
2017-03-14T12:24:02.554Z,15.34
2017-03-14T12:25:02.528Z,15.43
2017-03-14T12:26:02.518Z,15.41
2017-03-14T12:27:02.537Z,15.51
2017-03-14T12:28:02.513Z,15.53
2017-03-14T12:29:02.505Z,15.6
2017-03-14T12:30:02.501Z,15.68
2017-03-14T12:31:02.500Z,15.68
2017-03-14T12:32:02.199Z,15.6
2017-03-14T12:33:02.492Z,15.65
2017-03-14T12:34:02.487Z,15.68
2017-03-14T12:35:02.485Z,15.75
2017-03-14T12:36:02.479Z,15.84
2017-03-14T12:37:02.175Z,15.94
2017-03-14T12:38:02.476Z,15.92
2017-03-14T12:39:02.470Z,15.96
2017-03-14T12:40:02.468Z,16.07
2017-03-14T12:41:02.463Z,16.09
2017-03-14T12:42:02.460Z,16.17
2017-03-14T12:43:02.454Z,16.08
2017-03-14T12:44:02.457Z,16.05
2017-03-14T12:45:02.451Z,15.9
2017-03-14T12:46:02.448Z,15.92
2017-03-14T12:47:02.440Z,15.93
2017-03-14T12:48:02.442Z,15.93
2017-03-14T12:49:02.435Z,16.01
2017-03-14T12:50:02.431Z,15.94
2017-03-14T12:51:02.430Z,16.01
2017-03-14T12:52:02.425Z,15.94
2017-03-14T12:53:02.423Z,15.94
2017-03-14T12:54:02.422Z,15.97
2017-03-14T12:55:02.412Z,15.97
2017-03-14T12:56:02.410Z,15.92
2017-03-14T12:57:02.408Z,15.82
2017-03-14T12:58:02.402Z,15.74
2017-03-14T12:59:02.403Z,15.72
2017-03-14T13:00:02.400Z,15.69
2017-03-14T13:01:02.393Z,15.68
2017-03-14T13:02:02.386Z,15.65
2017-03-14T13:03:02.382Z,15.62
2017-03-14T13:04:02.381Z,15.57
2017-03-14T13:05:02.418Z,15.53
2017-03-14T13:06:02.373Z,15.56
2017-03-14T13:07:02.366Z,15.49
2017-03-14T13:08:02.366Z,15.43
2017-03-14T13:09:02.363Z,15.49
2017-03-14T13:10:02.356Z,15.41
2017-03-14T13:11:02.352Z,15.36
2017-03-14T13:12:02.357Z,15.35